Terminal Aerodrome Forecast
Issued by NWS

Current Version | Previous Version | Graphics & Text | Print | Product List | Glossary On
Versions: 1 2 3 4 5 6 7 8 9 10 11 12 13 14 15 16 17 18 19 20 21
873
FTUS41 KRLX 211330 AAA
TAFCKB
TAF AMD
KCKB 211330Z 2114/2212 24006KT 4SM -RA BKN005
     FM211500 26009KT P6SM BKN020
     FM212200 28009KT P6SM BKN060
     FM220000 30005KT P6SM BKN040
     FM220500 36005KT P6SM BKN025=

USA.gov is the U.S. government's official web portal to all federal, state and local government web resources and services.